Time;durP1;ratioP1;P1;durP2;ratioP2;P2;SDS_P1;SDS_P2;PMS_P1;PMS_P2;Temp;Humidity;BMP_temperature;BMP_pressure;BME280_temperature;BME280_humidity;BME280_pressure;Samples;Min_cycle;Max_cycle;Signal;HPM_P1;HPM_P2
2021/01/09 00:01:58;;;;;;;26.95;16.30;;;;;;;0.46;76.90;100384.26;1774750;79;21382;-74
2021/01/09 00:04:25;;;;;;;25.52;17.50;;;;;;;0.45;76.94;100386.55;1774693;79;21182;-75
2021/01/09 00:06:56;;;;;;;22.98;15.93;;;;;;;0.45;77.00;100387.88;1773511;79;21155;-76
2021/01/09 00:09:25;;;;;;;25.85;17.60;;;;;;;0.45;77.05;100380.49;1773636;80;21159;-74
2021/01/09 00:11:53;;;;;;;25.08;17.15;;;;;;;0.46;77.08;100388.67;1775227;80;21203;-75
2021/01/09 00:14:21;;;;;;;25.45;16.35;;;;;;;0.49;77.11;100387.48;1776972;80;21294;-73
2021/01/09 00:16:50;;;;;;;25.10;16.32;;;;;;;0.50;77.11;100385.19;1776293;79;21578;-74
2021/01/09 00:19:18;;;;;;;26.52;17.40;;;;;;;0.51;77.13;100384.98;1782162;80;21155;-75
2021/01/09 00:21:46;;;;;;;25.43;16.57;;;;;;;0.53;77.12;100387.39;1780587;80;21621;-75
2021/01/09 00:24:13;;;;;;;25.27;16.30;;;;;;;0.59;77.12;100386.62;1780917;80;21097;-75
2021/01/09 00:26:41;;;;;;;26.20;17.20;;;;;;;0.62;77.06;100397.55;1777125;79;21370;-75
2021/01/09 00:29:08;;;;;;;24.70;16.48;;;;;;;0.62;77.04;100396.73;1780501;80;21191;-75
2021/01/09 00:31:36;;;;;;;25.57;17.67;;;;;;;0.61;77.08;100382.80;1777844;80;21904;-75
2021/01/09 00:34:05;;;;;;;25.60;16.65;;;;;;;0.61;77.04;100386.73;1780459;80;21147;-74
2021/01/09 00:36:34;;;;;;;24.20;16.55;;;;;;;0.63;77.08;100389.19;1777509;79;21184;-75
2021/01/09 00:39:04;;;;;;;27.75;17.82;;;;;;;0.63;77.07;100386.05;1774241;80;22192;-75
2021/01/09 00:41:36;;;;;;;25.50;17.05;;;;;;;0.57;77.08;100386.02;1781081;80;21155;-74
2021/01/09 00:44:06;;;;;;;28.05;17.85;;;;;;;0.52;77.18;100385.78;1778888;80;21187;-75
2021/01/09 00:46:35;;;;;;;24.27;14.93;;;;;;;0.47;77.30;100389.00;1778914;79;21208;-74
2021/01/09 00:49:03;;;;;;;23.38;15.78;;;;;;;0.46;77.43;100389.99;1782934;80;21119;-73
2021/01/09 00:51:32;;;;;;;23.35;15.43;;;;;;;0.43;77.55;100387.78;1780832;80;21728;-75
2021/01/09 00:53:59;;;;;;;22.93;16.05;;;;;;;0.41;77.72;100394.53;1767795;80;21136;-74
2021/01/09 00:56:27;;;;;;;23.45;15.30;;;;;;;0.37;77.87;100388.55;1775951;79;21509;-74
2021/01/09 00:58:55;;;;;;;23.40;15.83;;;;;;;0.33;78.01;100392.07;1780451;80;21163;-75
2021/01/09 01:01:23;;;;;;;25.25;16.25;;;;;;;0.31;78.15;100384.07;1779321;79;21662;-75
2021/01/09 01:03:51;;;;;;;22.90;15.08;;;;;;;0.33;78.22;100385.50;1770492;80;21210;-74
2021/01/09 01:06:24;;;;;;;22.35;14.40;;;;;;;0.32;78.29;100375.98;1779323;79;22652;-73
2021/01/09 01:08:53;;;;;;;24.65;16.75;;;;;;;0.35;78.38;100374.79;1776642;80;21642;-74
2021/01/09 01:11:30;;;;;;;22.98;15.65;;;;;;;0.37;78.37;100368.84;1779664;80;21570;-74
2021/01/09 01:13:59;;;;;;;24.87;15.95;;;;;;;0.40;78.41;100364.52;1779824;80;21139;-74
2021/01/09 01:16:29;;;;;;;26.60;18.05;;;;;;;0.42;78.44;100367.23;1777622;79;21223;-75
2021/01/09 01:18:57;;;;;;;22.75;14.63;;;;;;;0.43;78.47;100360.19;1777116;80;21171;-74
2021/01/09 01:21:24;;;;;;;23.30;15.83;;;;;;;0.46;78.46;100362.40;1771121;80;21167;-74
2021/01/09 01:23:53;;;;;;;25.52;17.62;;;;;;;0.43;78.43;100362.31;1779484;79;21118;-74
2021/01/09 01:26:21;;;;;;;26.62;16.87;;;;;;;0.41;78.48;100359.56;1780457;80;21167;-74
2021/01/09 01:28:49;;;;;;;24.45;16.62;;;;;;;0.39;78.52;100353.17;1776528;79;21429;-74
2021/01/09 01:31:16;;;;;;;26.25;16.95;;;;;;;0.38;78.60;100366.02;1780739;80;21115;-74
2021/01/09 01:33:44;;;;;;;26.57;17.80;;;;;;;0.35;78.71;100362.97;1780418;79;21123;-74
2021/01/09 01:36:12;;;;;;;26.60;17.70;;;;;;;0.33;78.82;100361.86;1785667;80;21128;-74
2021/01/09 01:38:40;;;;;;;25.82;18.05;;;;;;;0.35;78.88;100364.28;1777493;79;21201;-75
2021/01/09 01:41:09;;;;;;;22.45;15.45;;;;;;;0.37;78.98;100364.40;1775439;80;22001;-75
2021/01/09 01:43:37;;;;;;;28.62;18.52;;;;;;;0.38;79.06;100362.58;1774304;80;21163;-75
2021/01/09 01:46:08;;;;;;;28.95;18.98;;;;;;;0.39;79.08;100360.25;1775382;80;21171;-74
2021/01/09 01:48:37;;;;;;;26.93;17.80;;;;;;;0.42;79.09;100359.86;1774392;79;21162;-75
2021/01/09 01:51:06;;;;;;;23.55;16.20;;;;;;;0.46;79.08;100360.61;1754409;80;21151;-75
2021/01/09 01:53:33;;;;;;;21.15;14.13;;;;;;;0.49;79.09;100352.81;1776570;80;21382;-74
2021/01/09 01:56:03;;;;;;;24.07;16.32;;;;;;;0.48;79.05;100354.34;1743543;80;21210;-75
2021/01/09 01:58:31;;;;;;;26.00;16.95;;;;;;;0.44;79.10;100352.09;1766350;79;21188;-74
2021/01/09 02:00:58;;;;;;;28.23;18.17;;;;;;;0.45;79.12;100354.22;1777682;80;21172;-75
2021/01/09 02:03:26;;;;;;;25.48;17.45;;;;;;;0.43;79.12;100353.62;1779264;80;21634;-75
2021/01/09 02:05:59;;;;;;;25.65;16.82;;;;;;;0.40;79.15;100349.56;1775530;80;21390;-75
2021/01/09 02:08:50;;;;;;;24.98;16.75;;;;;;;0.38;79.21;100343.68;1777205;79;21630;-74
2021/01/09 02:11:34;;;;;;;26.12;17.82;;;;;;;0.40;79.27;100346.94;1775078;80;21240;-75
2021/01/09 02:14:05;;;;;;;27.42;17.77;;;;;;;0.42;79.35;100344.09;1776881;80;21126;-75
2021/01/09 02:16:33;;;;;;;24.77;16.97;;;;;;;0.42;79.30;100339.65;1781103;80;21127;-74
2021/01/09 02:19:01;;;;;;;25.50;15.98;;;;;;;0.44;79.35;100343.41;1776413;79;21508;-76
2021/01/09 02:21:40;;;;;;;26.95;17.70;;;;;;;0.46;79.39;100341.38;1741833;82;21154;-74
2021/01/09 02:24:15;;;;;;;29.15;18.75;;;;;;;0.51;79.34;100338.98;1716450;82;21694;-73
2021/01/09 02:26:48;;;;;;;26.42;17.17;;;;;;;0.54;79.33;100337.28;1726864;82;38844;-73
2021/01/09 02:29:18;;;;;;;27.05;18.20;;;;;;;0.56;79.30;100333.97;1717660;82;21176;-75
2021/01/09 02:31:59;;;;;;;20.77;13.32;;;;;;;0.54;79.30;100332.03;1738841;81;21451;-75
2021/01/09 02:34:36;;;;;;;24.80;16.87;;;;;;;0.52;79.32;100330.09;1738762;82;21171;-75
2021/01/09 02:37:05;;;;;;;27.22;17.85;;;;;;;0.52;79.32;100328.77;1739019;82;21104;-75
2021/01/09 02:39:32;;;;;;;27.62;18.85;;;;;;;0.46;79.36;100327.77;1736778;81;21210;-74
2021/01/09 02:42:00;;;;;;;28.70;18.82;;;;;;;0.47;79.41;100322.00;1710843;82;21175;-75
2021/01/09 02:44:28;;;;;;;26.60;16.90;;;;;;;0.49;79.45;100326.53;1690293;82;22968;-75
2021/01/09 02:46:57;;;;;;;29.55;19.30;;;;;;;0.53;79.49;100324.33;1720829;82;21198;-75
2021/01/09 02:49:25;;;;;;;25.15;16.95;;;;;;;0.55;79.47;100327.58;1736451;81;21182;-75
2021/01/09 02:51:53;;;;;;;28.45;18.25;;;;;;;0.55;79.49;100327.58;1735349;82;21143;-75
2021/01/09 02:54:20;;;;;;;29.60;19.50;;;;;;;0.51;79.51;100322.41;1737240;82;21198;-75
2021/01/09 02:56:48;;;;;;;30.97;19.57;;;;;;;0.49;79.55;100319.97;1736898;82;21925;-74
2021/01/09 02:59:17;;;;;;;27.90;19.07;;;;;;;0.48;79.59;100328.06;1736015;81;21194;-74
2021/01/09 03:01:46;;;;;;;26.73;17.45;;;;;;;0.44;79.62;100323.70;1736669;82;21179;-75
2021/01/09 03:04:14;;;;;;;28.30;17.75;;;;;;;0.43;79.70;100326.84;1685665;82;21182;-75
2021/01/09 03:06:42;;;;;;;26.62;18.05;;;;;;;0.40;79.78;100315.91;1739024;82;21196;-75
2021/01/09 03:09:11;;;;;;;29.92;19.30;;;;;;;0.40;79.88;100326.42;1737433;81;21307;-75
2021/01/09 03:11:40;;;;;;;28.70;19.12;;;;;;;0.37;79.95;100328.13;1736585;82;21207;-73
2021/01/09 03:14:08;;;;;;;30.62;20.27;;;;;;;0.34;80.04;100324.57;1748362;81;21637;-73
2021/01/09 03:16:36;;;;;;;29.12;19.50;;;;;;;0.33;80.17;100328.19;1740163;81;21630;-75
2021/01/09 03:19:06;;;;;;;27.90;18.07;;;;;;;0.32;80.28;100327.38;1737914;81;21218;-76
2021/01/09 03:21:34;;;;;;;26.60;17.27;;;;;;;0.30;80.38;100328.09;1736739;81;21386;-74
2021/01/09 03:24:02;;;;;;;28.20;18.50;;;;;;;0.31;80.50;100329.70;1738352;82;21175;-74
2021/01/09 03:26:30;;;;;;;29.32;19.32;;;;;;;0.34;80.58;100327.20;1733276;81;21219;-73
2021/01/09 03:28:58;;;;;;;30.50;20.20;;;;;;;0.35;80.64;100325.67;1740299;82;21167;-74
2021/01/09 03:31:29;;;;;;;28.23;18.85;;;;;;;0.37;80.69;100319.73;1773365;79;21582;-73
2021/01/09 03:33:57;;;;;;;35.68;21.25;;;;;;;0.39;80.70;100326.90;1780463;80;21777;-75
2021/01/09 03:36:24;;;;;;;31.10;19.60;;;;;;;0.39;80.72;100328.72;1779293;80;21204;-74
2021/01/09 03:38:53;;;;;;;32.75;20.02;;;;;;;0.40;80.78;100327.73;1780256;80;21662;-74
2021/01/09 03:41:21;;;;;;;29.80;19.00;;;;;;;0.43;80.80;100324.72;1776682;79;21170;-74
2021/01/09 03:43:48;;;;;;;26.40;16.67;;;;;;;0.47;80.82;100325.94;1770109;80;21273;-73
2021/01/09 03:46:18;;;;;;;32.20;20.32;;;;;;;0.46;80.81;100336.13;1776450;80;22293;-74
2021/01/09 03:48:45;;;;;;;31.55;20.27;;;;;;;0.46;80.85;100325.14;1775945;80;21139;-74
2021/01/09 03:51:13;;;;;;;30.05;19.25;;;;;;;0.49;80.81;100323.91;1775807;79;21175;-75
2021/01/09 03:53:40;;;;;;;28.95;18.85;;;;;;;0.54;80.81;100325.97;1778387;80;21147;-75
2021/01/09 03:56:08;;;;;;;28.42;19.00;;;;;;;0.56;80.75;100331.81;1781884;80;21127;-75
2021/01/09 03:58:35;;;;;;;28.77;19.20;;;;;;;0.53;80.76;100328.27;1778379;80;21386;-74
2021/01/09 04:01:03;;;;;;;25.95;17.05;;;;;;;0.52;80.77;100341.91;1777471;79;21198;-75
2021/01/09 04:03:31;;;;;;;29.48;19.70;;;;;;;0.52;80.77;100332.72;1772759;80;21163;-75
2021/01/09 04:05:58;;;;;;;31.60;20.95;;;;;;;0.52;80.78;100327.45;1778845;80;21710;-75
2021/01/09 04:08:26;;;;;;;28.12;18.48;;;;;;;0.51;80.80;100335.55;1779078;80;21190;-76
2021/01/09 04:10:53;;;;;;;31.15;19.50;;;;;;;0.50;80.86;100331.31;1778796;79;21502;-76
2021/01/09 04:13:21;;;;;;;31.05;20.72;;;;;;;0.50;80.92;100332.63;1775082;80;21143;-75
2021/01/09 04:15:49;;;;;;;29.05;19.52;;;;;;;0.52;80.95;100339.28;1766046;80;21187;-76
2021/01/09 04:18:18;;;;;;;30.80;20.30;;;;;;;0.53;80.97;100334.84;1782732;80;21186;-76
2021/01/09 04:20:46;;;;;;;28.57;19.05;;;;;;;0.53;81.00;100338.78;1776605;79;21191;-75
2021/01/09 04:23:14;;;;;;;28.40;18.65;;;;;;;0.53;81.02;100340.92;1776138;80;21365;-76
2021/01/09 04:25:41;;;;;;;29.67;19.82;;;;;;;0.55;81.02;100344.16;1780333;80;21537;-76
2021/01/09 04:28:11;;;;;;;33.30;21.25;;;;;;;0.56;81.03;100340.53;1779418;80;21131;-76
2021/01/09 04:30:40;;;;;;;28.25;18.40;;;;;;;0.58;81.06;100352.16;1778556;79;21546;-76
2021/01/09 04:33:08;;;;;;;30.48;20.15;;;;;;;0.57;81.09;100355.29;1775472;79;21685;-77
2021/01/09 04:35:35;;;;;;;31.33;20.70;;;;;;;0.56;81.16;100352.36;1780222;80;21170;-75
2021/01/09 04:38:03;;;;;;;31.50;20.62;;;;;;;0.57;81.19;100352.66;1779512;80;21160;-74
2021/01/09 04:40:30;;;;;;;31.25;20.90;;;;;;;0.57;81.23;100356.60;1780623;80;21163;-74
2021/01/09 04:43:01;;;;;;;31.95;20.35;;;;;;;0.60;81.26;100356.72;1774362;79;21103;-75
2021/01/09 04:45:29;;;;;;;33.05;20.70;;;;;;;0.62;81.27;100349.44;1770212;80;21611;-75
2021/01/09 04:47:57;;;;;;;34.50;21.80;;;;;;;0.63;81.22;100347.94;1754174;80;21877;-75
2021/01/09 04:50:26;;;;;;;27.05;18.23;;;;;;;0.63;81.22;100342.68;1749461;80;21549;-75
2021/01/09 04:52:54;;;;;;;28.17;18.90;;;;;;;0.65;81.22;100351.16;1747502;80;21509;-75
2021/01/09 04:55:21;;;;;;;28.98;18.35;;;;;;;0.61;81.19;100352.57;1752153;80;21103;-75
2021/01/09 04:57:52;;;;;;;27.62;17.98;;;;;;;0.59;81.22;100358.55;1778584;80;21155;-75
2021/01/09 05:00:20;;;;;;;31.77;21.07;;;;;;;0.59;81.25;100362.48;1780326;80;21401;-75
2021/01/09 05:02:49;;;;;;;31.02;20.57;;;;;;;0.60;81.28;100364.09;1776405;79;21149;-75
2021/01/09 05:05:19;;;;;;;27.15;17.30;;;;;;;0.61;81.26;100360.45;1779264;80;21206;-74
2021/01/09 05:07:50;;;;;;;31.00;21.42;;;;;;;0.61;81.30;100360.96;1749780;80;21127;-75
2021/01/09 05:10:18;;;;;;;31.57;20.62;;;;;;;0.62;81.32;100364.69;1780740;80;21180;-75
2021/01/09 05:12:46;;;;;;;33.05;21.05;;;;;;;0.68;81.33;100359.97;1777187;79;21192;-74
2021/01/09 05:15:14;;;;;;;30.43;19.73;;;;;;;0.70;81.26;100370.30;1753941;80;21155;-75
2021/01/09 05:17:42;;;;;;;32.13;21.48;;;;;;;0.69;81.24;100369.50;1778969;80;21183;-74
2021/01/09 05:20:12;;;;;;;28.70;18.17;;;;;;;0.67;81.24;100374.12;1733646;80;21123;-74
2021/01/09 05:22:40;;;;;;;30.08;19.57;;;;;;;0.67;81.24;100374.12;1777053;79;21204;-75
2021/01/09 05:25:09;;;;;;;29.50;19.35;;;;;;;0.66;81.25;100381.72;1726875;80;21295;-74
2021/01/09 05:27:37;;;;;;;29.45;19.50;;;;;;;0.68;81.27;100379.69;1781272;80;21166;-75
2021/01/09 05:30:06;;;;;;;31.95;20.48;;;;;;;0.70;81.27;100378.19;1751624;80;21056;-74
2021/01/09 05:32:34;;;;;;;30.82;19.32;;;;;;;0.72;81.23;100380.09;1765576;79;21190;-74
2021/01/09 05:35:03;;;;;;;30.45;20.75;;;;;;;0.76;81.19;100380.03;1748870;80;21182;-76
2021/01/09 05:37:32;;;;;;;28.83;19.32;;;;;;;0.76;81.11;100387.09;1740216;80;21338;-75
2021/01/09 05:40:01;;;;;;;32.00;21.25;;;;;;;0.75;81.09;100386.28;1704930;82;21639;-76
2021/01/09 05:42:29;;;;;;;33.30;21.10;;;;;;;0.74;81.08;100389.13;1721339;82;21191;-75
2021/01/09 05:44:57;;;;;;;33.02;20.77;;;;;;;0.78;81.05;100398.23;1718782;82;21228;-75
2021/01/09 05:47:29;;;;;;;29.63;19.73;;;;;;;0.80;81.02;100394.41;1721800;82;21172;-77
2021/01/09 05:49:59;;;;;;;31.02;20.68;;;;;;;0.81;80.99;100399.16;1720528;82;21815;-75
2021/01/09 05:52:28;;;;;;;26.70;16.87;;;;;;;0.79;80.97;100399.36;1715740;81;21216;-76
2021/01/09 05:54:59;;;;;;;28.45;18.73;;;;;;;0.78;80.97;100403.48;1724239;82;21654;-75
2021/01/09 05:57:31;;;;;;;31.93;21.30;;;;;;;0.78;81.01;100406.12;1720431;83;21203;-74
2021/01/09 06:00:07;;;;;;;32.08;20.48;;;;;;;0.79;80.99;100403.78;1719630;83;21228;-74
2021/01/09 06:03:13;;;;;;;31.70;19.98;;;;;;;0.81;81.01;100405.73;1713045;81;21838;-75
2021/01/09 06:05:48;;;;;;;28.97;18.83;;;;;;;0.87;80.98;100407.58;1809689;79;22743;-72
2021/01/09 06:08:21;;;;;;;28.05;18.10;;;;;;;0.85;80.95;100410.89;1764052;78;21182;-71
2021/01/09 06:10:49;;;;;;;30.95;20.25;;;;;;;0.82;80.92;100414.72;1720434;80;21384;-72
2021/01/09 06:13:16;;;;;;;25.10;15.50;;;;;;;0.80;80.99;100417.27;1733432;81;21183;-72
2021/01/09 06:15:43;;;;;;;27.17;18.07;;;;;;;0.78;81.07;100425.33;1734635;79;21255;-72
2021/01/09 06:18:12;;;;;;;32.60;20.40;;;;;;;0.75;81.13;100429.66;1721672;81;21155;-71
2021/01/09 06:20:40;;;;;;;32.65;20.02;;;;;;;0.72;81.27;100430.55;1741378;81;21143;-72
2021/01/09 06:23:07;;;;;;;30.57;19.80;;;;;;;0.68;81.44;100437.52;1763526;79;22189;-71
2021/01/09 06:25:35;;;;;;;27.35;17.45;;;;;;;0.72;81.63;100437.13;1767936;79;21168;-73
2021/01/09 06:28:05;;;;;;;27.48;17.25;;;;;;;0.74;81.78;100433.81;1794620;77;21523;-73
2021/01/09 06:30:33;;;;;;;31.23;20.43;;;;;;;0.73;81.87;100434.31;1775733;80;21179;-72
2021/01/09 06:33:03;;;;;;;28.05;18.95;;;;;;;0.70;81.93;100434.70;1800671;77;21152;-71
2021/01/09 06:35:33;;;;;;;34.70;21.97;;;;;;;0.72;82.02;100441.07;1798462;79;21364;-72
2021/01/09 06:38:02;;;;;;;34.58;21.73;;;;;;;0.70;82.05;100441.28;1793665;77;21193;-72
2021/01/09 06:40:30;;;;;;;30.15;18.77;;;;;;;0.69;82.15;100440.47;1797933;79;21156;-72
2021/01/09 06:42:57;;;;;;;35.73;22.00;;;;;;;0.73;82.20;100440.08;1800056;77;21148;-72
2021/01/09 06:45:25;;;;;;;27.65;18.17;;;;;;;0.69;82.18;100444.41;1770453;77;21116;-73
2021/01/09 06:47:59;;;;;;;31.60;19.75;;;;;;;0.66;82.21;100439.55;1798052;79;21215;-73
2021/01/09 06:50:34;;;;;;;33.83;20.80;;;;;;;0.61;82.29;100437.98;1810104;77;21171;-73
2021/01/09 06:53:04;;;;;;;34.60;22.13;;;;;;;0.62;82.35;100438.29;1803878;77;21165;-73
2021/01/09 06:55:44;;;;;;;34.23;22.80;;;;;;;0.62;82.39;100446.68;1804123;77;21683;-71
2021/01/09 06:58:16;;;;;;;30.55;21.02;;;;;;;0.63;82.42;100446.50;1802513;79;21876;-71
2021/01/09 07:00:43;;;;;;;35.03;21.80;;;;;;;0.69;82.46;100441.78;1803179;77;22075;-72
2021/01/09 07:03:15;;;;;;;31.37;20.40;;;;;;;0.72;82.42;100448.45;1802269;78;21181;-72
2021/01/09 07:05:52;;;;;;;31.48;20.95;;;;;;;0.73;82.44;100451.91;1799035;77;21224;-72
2021/01/09 07:08:25;;;;;;;29.05;19.07;;;;;;;0.76;82.43;100455.44;1801583;77;21293;-72
2021/01/09 07:10:58;;;;;;;28.75;19.40;;;;;;;0.78;82.40;100446.87;1811411;77;21600;-72
2021/01/09 07:13:27;;;;;;;30.30;19.82;;;;;;;0.80;82.32;100459.33;1805860;77;22297;-73
2021/01/09 07:16:12;;;;;;;32.55;20.88;;;;;;;0.81;82.29;100456.48;1782250;79;21191;-72
2021/01/09 07:18:49;;;;;;;29.40;19.02;;;;;;;0.81;82.19;100460.94;1795142;77;21767;-73
2021/01/09 07:21:21;;;;;;;30.62;20.12;;;;;;;0.83;82.12;100464.20;1788380;77;21567;-73
2021/01/09 07:23:53;;;;;;;34.58;22.58;;;;;;;0.84;82.11;100461.36;1793703;77;21691;-73
2021/01/09 07:26:21;;;;;;;;;;;;;;;0.89;82.09;100466.05;1798492;79;21610;-72
2021/01/09 07:28:49;;;;;;;34.92;21.68;;;;;;;0.94;82.03;100466.25;1797683;77;20258;-74
2021/01/09 07:31:19;;;;;;;30.77;19.75;;;;;;;0.97;81.99;100464.55;1801577;78;21152;-73
2021/01/09 07:33:47;;;;;;;30.57;20.77;;;;;;;1.02;81.84;100463.47;1774536;79;21200;-74
2021/01/09 07:36:15;;;;;;;32.60;22.02;;;;;;;1.05;81.65;100464.88;1792460;79;21164;-73
2021/01/09 07:38:49;;;;;;;32.78;20.35;;;;;;;1.03;81.55;100466.41;1797317;77;22352;-73
2021/01/09 07:41:37;;;;;;;33.18;22.17;;;;;;;1.05;81.38;100475.39;1800384;77;21159;-73
2021/01/09 07:44:20;;;;;;;33.73;21.77;;;;;;;1.06;81.34;100467.33;1802117;79;21184;-74
2021/01/09 07:46:56;;;;;;;36.70;23.95;;;;;;;1.10;81.26;100462.48;1802669;79;21120;-72
2021/01/09 07:49:36;;;;;;;31.52;20.43;;;;;;;1.16;81.28;100473.03;1810300;79;21109;-72
2021/01/09 07:52:06;;;;;;;35.48;22.98;;;;;;;1.27;81.24;100467.69;1818266;77;21761;-72
2021/01/09 07:54:46;;;;;;;31.05;20.90;;;;;;;1.30;80.81;100471.24;1796681;79;21180;-72
2021/01/09 07:57:22;;;;;;;31.48;21.40;;;;;;;1.32;80.76;100473.70;1810052;79;21561;-72
2021/01/09 08:00:01;;;;;;;34.45;21.68;;;;;;;1.33;80.56;100477.94;1809600;77;21422;-72
2021/01/09 08:02:37;;;;;;;31.85;20.35;;;;;;;1.35;80.56;100478.53;1795371;79;21131;-72
2021/01/09 08:05:15;;;;;;;31.68;20.88;;;;;;;1.40;80.29;100478.25;1800244;77;22306;-73
2021/01/09 08:07:50;;;;;;;31.27;19.62;;;;;;;1.40;80.13;100476.94;1805036;77;21209;-72
2021/01/09 08:10:31;;;;;;;31.80;20.95;;;;;;;1.46;80.09;100475.34;1803487;77;21168;-73
2021/01/09 08:13:06;;;;;;;35.43;23.25;;;;;;;1.47;79.89;100480.91;1801197;77;21227;-73
2021/01/09 08:15:34;;;;;;;;;;;;;;;1.46;79.79;100480.61;1803495;77;21204;-73
2021/01/09 08:18:05;;;;;;;30.35;19.42;;;;;;;1.49;79.68;100482.84;1801872;77;21383;-73
2021/01/09 08:20:47;;;;;;;35.83;23.67;;;;;;;1.52;79.31;100482.95;1798988;78;24224;-76
2021/01/09 08:23:14;;;;;;;30.35;20.27;;;;;;;1.48;79.42;100480.39;1804834;77;21199;-76
2021/01/09 08:25:43;;;;;;;32.10;21.33;;;;;;;1.55;79.40;100487.31;1778418;78;21358;-75
2021/01/09 08:28:11;;;;;;;36.55;23.38;;;;;;;1.55;79.15;100478.61;1782210;78;21745;-76
2021/01/09 08:30:39;;;;;;;36.15;22.62;;;;;;;1.53;79.21;100477.48;1717495;80;21151;-75
2021/01/09 08:33:16;;;;;;;31.42;21.33;;;;;;;1.55;79.19;100478.10;1777780;80;21204;-76
2021/01/09 08:35:47;;;;;;;31.90;20.75;;;;;;;1.63;79.17;100475.78;1806771;77;21168;-77
2021/01/09 08:38:16;;;;;;;31.15;19.90;;;;;;;1.70;78.98;100469.20;1818136;77;22256;-74
2021/01/09 08:40:44;;;;;;;31.37;20.32;;;;;;;1.68;78.66;100469.90;1818867;78;21187;-76
2021/01/09 08:43:14;;;;;;;30.72;20.40;;;;;;;1.66;78.44;100469.31;1822596;78;21053;-77
2021/01/09 08:45:54;;;;;;;34.05;22.50;;;;;;;1.62;78.36;100472.84;1811214;78;21402;-78
2021/01/09 08:48:32;;;;;;;38.45;24.77;;;;;;;1.56;78.37;100463.11;1788640;78;21647;-77
2021/01/09 08:51:11;;;;;;;32.85;22.37;;;;;;;1.59;78.58;100463.52;1787990;78;21435;-76
2021/01/09 08:54:03;;;;;;;33.18;22.07;;;;;;;1.63;78.45;100470.52;1800006;77;21124;-76
2021/01/09 08:56:31;;;;;;;33.00;21.70;;;;;;;1.64;78.53;100465.03;1785648;78;21200;-77
2021/01/09 08:59:08;;;;;;;32.48;21.90;;;;;;;1.72;78.42;100466.69;1774805;79;21168;-76
2021/01/09 09:01:43;;;;;;;33.45;22.73;;;;;;;1.66;78.24;100456.14;1792027;80;21111;-77
2021/01/09 09:04:11;;;;;;;31.57;21.23;;;;;;;1.64;78.16;100463.72;1786017;78;21612;-76
2021/01/09 09:06:42;;;;;;;31.00;20.32;;;;;;;1.61;78.15;100464.14;1778254;80;22358;-76
2021/01/09 09:09:16;;;;;;;32.58;22.32;;;;;;;1.62;78.12;100455.73;1816420;78;21627;-77
2021/01/09 09:11:51;;;;;;;31.87;20.10;;;;;;;1.59;78.23;100460.89;1811622;78;21160;-77
2021/01/09 09:14:20;;;;;;;34.53;22.55;;;;;;;1.59;78.28;100459.57;1810258;77;21786;-78
2021/01/09 09:17:00;;;;;;;29.67;20.05;;;;;;;1.58;78.03;100446.59;1811849;78;22359;-78
2021/01/09 09:19:37;;;;;;;33.38;22.60;;;;;;;1.56;77.94;100452.08;1806249;78;21198;-77
2021/01/09 09:22:06;;;;;;;29.48;20.23;;;;;;;1.52;77.95;100452.17;1792965;78;21175;-77
2021/01/09 09:24:44;;;;;;;32.17;22.02;;;;;;;1.55;78.02;100449.14;1816835;77;21216;-78
2021/01/09 09:27:26;;;;;;;32.17;21.07;;;;;;;1.55;77.75;100451.78;1783749;78;21178;-77
2021/01/09 09:30:12;;;;;;;31.27;20.70;;;;;;;1.54;77.80;100448.02;1783766;78;21652;-77
2021/01/09 09:32:46;;;;;;;29.15;20.50;;;;;;;1.58;77.90;100451.38;1805193;78;21676;-76
2021/01/09 09:35:25;;;;;;;33.08;22.48;;;;;;;1.59;77.76;100447.73;1785192;78;21174;-78
2021/01/09 09:38:06;;;;;;;30.00;20.03;;;;;;;1.64;77.70;100444.48;1797237;78;23500;-76
2021/01/09 09:40:35;;;;;;;27.58;19.27;;;;;;;1.61;77.70;100439.61;1783508;78;21167;-76
2021/01/09 09:43:16;;;;;;;31.40;20.48;;;;;;;1.63;77.60;100438.41;1809344;78;22304;-76
2021/01/09 09:46:05;;;;;;;29.12;18.20;;;;;;;1.66;77.59;100434.57;1783630;78;21179;-76
2021/01/09 09:48:44;;;;;;;28.35;20.27;;;;;;;1.75;77.51;100424.16;1847747;74;28129;-76
2021/01/09 09:51:12;;;;;;;29.65;20.10;;;;;;;1.81;77.07;100422.03;1843237;75;21704;-76
2021/01/09 09:53:43;;;;;;;30.90;20.50;;;;;;;1.91;76.77;100426.06;1833596;75;22385;-76
2021/01/09 09:56:21;;;;;;;28.83;19.90;;;;;;;1.93;76.34;100427.48;1848132;75;21774;-77
2021/01/09 09:59:04;;;;;;;30.05;19.98;;;;;;;1.90;76.17;100424.45;1840514;75;21144;-78
2021/01/09 10:01:32;;;;;;;30.57;21.52;;;;;;;1.93;75.96;100426.16;1846054;77;21761;-77
2021/01/09 10:04:02;;;;;;;28.80;19.07;;;;;;;1.96;75.77;100411.78;1843973;76;21132;-77
2021/01/09 10:06:39;;;;;;;27.32;18.40;;;;;;;1.98;75.48;100420.30;1837430;75;21604;-77
2021/01/09 10:09:17;;;;;;;29.27;19.65;;;;;;;1.97;74.87;100423.42;1842948;75;21156;-76
2021/01/09 10:11:47;;;;;;;29.40;19.07;;;;;;;1.99;74.95;100420.59;1837420;75;21159;-77
2021/01/09 10:14:17;;;;;;;23.25;15.30;;;;;;;2.00;74.79;100425.65;1841149;77;21249;-77
2021/01/09 10:16:46;;;;;;;21.37;14.90;;;;;;;2.01;74.01;100423.34;1845146;75;21271;-77
2021/01/09 10:19:16;;;;;;;24.27;16.52;;;;;;;2.01;73.33;100419.39;1839507;77;21472;-77
2021/01/09 10:21:44;;;;;;;22.30;15.25;;;;;;;2.03;73.39;100412.58;1841568;75;21301;-77
2021/01/09 10:24:12;;;;;;;25.43;15.75;;;;;;;2.05;72.46;100420.59;1844304;76;21191;-77
2021/01/09 10:26:40;;;;;;;23.15;15.13;;;;;;;2.07;72.20;100419.06;1851261;75;21167;-77
2021/01/09 10:29:07;;;;;;;24.47;15.38;;;;;;;2.11;71.98;100418.98;1779126;78;21157;-76
2021/01/09 10:31:38;;;;;;;23.98;15.88;;;;;;;2.14;71.62;100418.57;1779603;80;21380;-77
2021/01/09 10:34:07;;;;;;;23.12;16.17;;;;;;;2.19;71.64;100412.67;1796579;77;21575;-78
2021/01/09 10:36:38;;;;;;;25.72;16.93;;;;;;;2.23;71.58;100407.28;1776997;78;21149;-76
2021/01/09 10:39:07;;;;;;;25.55;16.17;;;;;;;2.25;71.60;100407.39;1771615;78;21116;-77
2021/01/09 10:41:35;;;;;;;26.27;16.75;;;;;;;2.24;71.68;100418.16;1803366;78;21180;-78
2021/01/09 10:44:06;;;;;;;23.45;14.98;;;;;;;2.21;71.23;100419.87;1776534;79;21224;-78
2021/01/09 10:46:33;;;;;;;22.58;14.87;;;;;;;2.18;71.16;100421.60;1774330;78;21228;-78
2021/01/09 10:49:01;;;;;;;23.02;15.32;;;;;;;2.16;71.35;100417.84;1804736;77;22212;-77
2021/01/09 10:51:34;;;;;;;24.65;16.20;;;;;;;2.16;71.07;100417.84;1781899;78;21161;-77
2021/01/09 10:54:02;;;;;;;23.07;14.87;;;;;;;2.14;71.08;100413.78;1786502;78;21154;-78
2021/01/09 10:56:31;;;;;;;24.25;15.60;;;;;;;2.11;70.88;100405.29;1789083;78;21442;-78
2021/01/09 10:58:59;;;;;;;22.90;15.03;;;;;;;2.11;71.08;100405.29;1802294;77;21052;-78
2021/01/09 11:01:26;;;;;;;21.70;15.03;;;;;;;2.16;70.68;100399.91;1810558;77;21170;-78
2021/01/09 11:03:57;;;;;;;24.30;15.78;;;;;;;2.16;70.29;100398.59;1805338;77;21169;-78
2021/01/09 11:06:25;;;;;;;23.65;15.25;;;;;;;2.14;70.30;100413.30;1813309;77;21130;-77
2021/01/09 11:08:52;;;;;;;26.12;16.77;;;;;;;2.14;70.06;100397.48;1807959;77;21378;-76
2021/01/09 11:11:21;;;;;;;23.38;15.65;;;;;;;2.13;70.17;100397.68;1788746;79;21184;-78
2021/01/09 11:13:49;;;;;;;23.87;16.65;;;;;;;2.13;70.10;100402.44;1789819;78;21159;-77
2021/01/09 11:16:22;;;;;;;25.95;16.85;;;;;;;2.17;70.31;100393.09;1791745;78;21153;-77
2021/01/09 11:18:50;;;;;;;25.05;17.27;;;;;;;2.21;69.83;100393.53;1811770;77;21122;-76
2021/01/09 11:21:19;;;;;;;24.20;17.00;;;;;;;2.22;69.89;100393.82;1784813;78;21331;-77
2021/01/09 11:23:47;;;;;;;25.82;17.80;;;;;;;2.21;69.70;100399.60;1811878;77;21130;-77
2021/01/09 11:26:23;;;;;;;24.18;16.62;;;;;;;2.17;69.63;100418.13;1796334;77;21212;-77
2021/01/09 11:28:52;;;;;;;26.02;17.20;;;;;;;2.15;69.65;100410.16;1809935;77;21167;-77
2021/01/09 11:31:22;;;;;;;25.12;17.50;;;;;;;2.13;69.37;100406.39;1778244;78;21164;-77
2021/01/09 11:33:52;;;;;;;27.75;18.00;;;;;;;2.15;69.19;100410.95;1802991;77;21600;-78